CYYJ

Victoria International Airport

Victoria, , Canada
METAR CYYJ 192000Z 12009KT 30SM FEW150 18/13 A3004 RMK AC1 SLP173 DENSITY ALT 300FT
Observed Flight Rules
Jun-19 @ 20:00 UTC (15 minutes ago) Visual Flight Rules
Wind Visibility Clouds
120° at 9 knots 30 miles
  • Few at 15,000' AGL
Temperatures Readings
Current 18°C / 64°F
Dewpoint 13°C / 55°F
Humidity 73%
Altimeter 30.04" Hg
Pressure 1017.3 hPa
Elevation 19
METAR CYYJ 192000Z 12009KT 30SM FEW150 18/13 A3004 RMK AC1 SLP173 DENSITY ALT 300FT
Observed Flight Rules
Jun-19 @ 20:00 UTC
(15 minutes ago)
VFR
Wind Visibility
120° at 9 knots 30 miles
Clouds
  • Few at 15,000' AGL
Temperature Dewpoint
18°C / 64°F 13°C / 55°F
Humidity Altimeter Pressure
73% 30.04" Hg 1017.3 hPa